sensor_id;sensor_type;location;lat;lon;timestamp;temperature;humidity
17851;DHT22;9051;51.548;14.348;2022-08-04T00:01:30;22.70;99.90
17851;DHT22;9051;51.548;14.348;2022-08-04T00:04:07;22.80;99.90
17851;DHT22;9051;51.548;14.348;2022-08-04T00:06:48;22.80;99.90
17851;DHT22;9051;51.548;14.348;2022-08-04T00:09:29;22.80;99.90
17851;DHT22;9051;51.548;14.348;2022-08-04T00:12:06;22.70;99.90
17851;DHT22;9051;51.548;14.348;2022-08-04T00:14:46;22.70;99.90
17851;DHT22;9051;51.548;14.348;2022-08-04T00:17:23;22.70;99.90
17851;DHT22;9051;51.548;14.348;2022-08-04T00:20:00;22.60;99.90
17851;DHT22;9051;51.548;14.348;2022-08-04T00:22:34;22.60;99.90
17851;DHT22;9051;51.548;14.348;2022-08-04T00:25:08;22.60;99.90
17851;DHT22;9051;51.548;14.348;2022-08-04T00:27:40;22.60;99.90
17851;DHT22;9051;51.548;14.348;2022-08-04T00:30:12;22.50;99.90
17851;DHT22;9051;51.548;14.348;2022-08-04T00:32:44;22.50;99.90
17851;DHT22;9051;51.548;14.348;2022-08-04T00:35:16;22.50;99.90
17851;DHT22;9051;51.548;14.348;2022-08-04T00:37:50;22.50;99.90
17851;DHT22;9051;51.548;14.348;2022-08-04T00:40:27;22.40;99.90
17851;DHT22;9051;51.548;14.348;2022-08-04T00:43:12;22.40;99.90
17851;DHT22;9051;51.548;14.348;2022-08-04T00:46:06;22.50;99.90
17851;DHT22;9051;51.548;14.348;2022-08-04T00:49:02;22.40;99.90
17851;DHT22;9051;51.548;14.348;2022-08-04T00:55:41;22.30;99.90
17851;DHT22;9051;51.548;14.348;2022-08-04T00:58:26;22.30;99.90
17851;DHT22;9051;51.548;14.348;2022-08-04T01:01:03;22.30;99.90
17851;DHT22;9051;51.548;14.348;2022-08-04T01:03:52;22.30;99.90
17851;DHT22;9051;51.548;14.348;2022-08-04T01:06:36;22.20;99.90
17851;DHT22;9051;51.548;14.348;2022-08-04T01:09:26;22.10;99.90
17851;DHT22;9051;51.548;14.348;2022-08-04T01:12:19;22.10;99.90
17851;DHT22;9051;51.548;14.348;2022-08-04T01:15:03;22.00;99.90
17851;DHT22;9051;51.548;14.348;2022-08-04T01:17:42;22.00;99.90
17851;DHT22;9051;51.548;14.348;2022-08-04T01:20:20;22.00;99.90
17851;DHT22;9051;51.548;14.348;2022-08-04T01:29:15;21.90;99.90
17851;DHT22;9051;51.548;14.348;2022-08-04T01:31:59;21.90;99.90
17851;DHT22;9051;51.548;14.348;2022-08-04T01:34:41;21.90;99.90
17851;DHT22;9051;51.548;14.348;2022-08-04T01:37:22;21.90;99.90
17851;DHT22;9051;51.548;14.348;2022-08-04T01:40:03;21.90;99.90
17851;DHT22;9051;51.548;14.348;2022-08-04T01:42:36;21.90;99.90
17851;DHT22;9051;51.548;14.348;2022-08-04T01:45:13;21.80;99.90
17851;DHT22;9051;51.548;14.348;2022-08-04T01:47:50;21.70;99.90
17851;DHT22;9051;51.548;14.348;2022-08-04T01:50:23;21.60;99.90
17851;DHT22;9051;51.548;14.348;2022-08-04T01:52:57;21.60;99.90
17851;DHT22;9051;51.548;14.348;2022-08-04T01:55:30;21.50;99.90
17851;DHT22;9051;51.548;14.348;2022-08-04T01:58:04;21.40;99.90
17851;DHT22;9051;51.548;14.348;2022-08-04T02:00:41;21.40;99.90
17851;DHT22;9051;51.548;14.348;2022-08-04T02:03:16;21.30;99.90
17851;DHT22;9051;51.548;14.348;2022-08-04T02:05:50;21.20;99.90
17851;DHT22;9051;51.548;14.348;2022-08-04T02:08:33;21.20;99.90
17851;DHT22;9051;51.548;14.348;2022-08-04T02:11:13;21.20;99.90
17851;DHT22;9051;51.548;14.348;2022-08-04T02:13:53;21.20;99.90
17851;DHT22;9051;51.548;14.348;2022-08-04T02:16:45;21.20;99.90
17851;DHT22;9051;51.548;14.348;2022-08-04T02:19:23;21.20;99.90
17851;DHT22;9051;51.548;14.348;2022-08-04T02:22:06;21.20;99.90
17851;DHT22;9051;51.548;14.348;2022-08-04T02:24:44;21.10;99.90
17851;DHT22;9051;51.548;14.348;2022-08-04T02:27:27;21.00;99.90
17851;DHT22;9051;51.548;14.348;2022-08-04T02:30:03;21.00;99.90
17851;DHT22;9051;51.548;14.348;2022-08-04T02:32:37;21.00;99.90
17851;DHT22;9051;51.548;14.348;2022-08-04T02:35:14;20.80;99.90
17851;DHT22;9051;51.548;14.348;2022-08-04T02:37:48;20.80;99.90
17851;DHT22;9051;51.548;14.348;2022-08-04T02:40:29;20.90;99.90
17851;DHT22;9051;51.548;14.348;2022-08-04T02:43:03;20.90;99.90
17851;DHT22;9051;51.548;14.348;2022-08-04T02:45:40;20.90;99.90
17851;DHT22;9051;51.548;14.348;2022-08-04T02:48:15;20.90;99.90
17851;DHT22;9051;51.548;14.348;2022-08-04T02:50:48;20.90;99.90
17851;DHT22;9051;51.548;14.348;2022-08-04T02:53:26;20.80;99.90
17851;DHT22;9051;51.548;14.348;2022-08-04T02:56:01;20.80;99.90
17851;DHT22;9051;51.548;14.348;2022-08-04T02:58:34;20.80;99.90
17851;DHT22;9051;51.548;14.348;2022-08-04T03:01:07;20.80;99.90
17851;DHT22;9051;51.548;14.348;2022-08-04T03:03:47;20.90;99.90
17851;DHT22;9051;51.548;14.348;2022-08-04T03:16:02;21.00;99.90
17851;DHT22;9051;51.548;14.348;2022-08-04T03:19:12;21.00;99.90
17851;DHT22;9051;51.548;14.348;2022-08-04T03:25:24;20.90;99.90
17851;DHT22;9051;51.548;14.348;2022-08-04T03:28:34;20.80;99.90
17851;DHT22;9051;51.548;14.348;2022-08-04T03:31:30;20.90;99.90
17851;DHT22;9051;51.548;14.348;2022-08-04T03:34:32;20.90;99.90
17851;DHT22;9051;51.548;14.348;2022-08-04T03:37:18;20.80;99.90
17851;DHT22;9051;51.548;14.348;2022-08-04T03:43:46;20.90;99.90
17851;DHT22;9051;51.548;14.348;2022-08-04T03:46:46;20.80;99.90
17851;DHT22;9051;51.548;14.348;2022-08-04T03:49:44;20.80;99.90
17851;DHT22;9051;51.548;14.348;2022-08-04T03:52:36;20.80;99.90
17851;DHT22;9051;51.548;14.348;2022-08-04T03:55:40;20.80;99.90
17851;DHT22;9051;51.548;14.348;2022-08-04T03:58:38;20.80;99.90
17851;DHT22;9051;51.548;14.348;2022-08-04T04:01:29;20.80;99.90
17851;DHT22;9051;51.548;14.348;2022-08-04T04:04:29;20.80;99.90
17851;DHT22;9051;51.548;14.348;2022-08-04T04:07:48;20.80;99.90
17851;DHT22;9051;51.548;14.348;2022-08-04T04:10:57;20.70;99.90
17851;DHT22;9051;51.548;14.348;2022-08-04T04:13:57;20.70;99.90
17851;DHT22;9051;51.548;14.348;2022-08-04T04:16:50;20.70;99.90
17851;DHT22;9051;51.548;14.348;2022-08-04T04:19:58;20.70;99.90
17851;DHT22;9051;51.548;14.348;2022-08-04T04:22:58;20.70;99.90
17851;DHT22;9051;51.548;14.348;2022-08-04T04:25:34;20.70;99.90
17851;DHT22;9051;51.548;14.348;2022-08-04T04:28:26;20.80;99.90
17851;DHT22;9051;51.548;14.348;2022-08-04T04:31:07;20.70;99.90
17851;DHT22;9051;51.548;14.348;2022-08-04T04:33:54;20.80;99.90
17851;DHT22;9051;51.548;14.348;2022-08-04T04:36:33;20.90;99.90
17851;DHT22;9051;51.548;14.348;2022-08-04T04:39:19;20.90;99.90
17851;DHT22;9051;51.548;14.348;2022-08-04T04:42:11;20.90;99.90
17851;DHT22;9051;51.548;14.348;2022-08-04T04:45:09;21.00;99.90
17851;DHT22;9051;51.548;14.348;2022-08-04T04:47:54;21.00;99.90
17851;DHT22;9051;51.548;14.348;2022-08-04T04:50:37;21.10;99.90
17851;DHT22;9051;51.548;14.348;2022-08-04T04:53:19;21.20;99.90
17851;DHT22;9051;51.548;14.348;2022-08-04T04:55:58;21.20;99.90
17851;DHT22;9051;51.548;14.348;2022-08-04T04:58:33;21.30;99.90
17851;DHT22;9051;51.548;14.348;2022-08-04T05:01:27;21.30;99.90
17851;DHT22;9051;51.548;14.348;2022-08-04T05:04:20;21.40;99.90
17851;DHT22;9051;51.548;14.348;2022-08-04T05:07:18;21.40;99.90
17851;DHT22;9051;51.548;14.348;2022-08-04T05:10:02;21.40;99.90
17851;DHT22;9051;51.548;14.348;2022-08-04T05:12:51;21.50;99.90
17851;DHT22;9051;51.548;14.348;2022-08-04T05:15:33;21.50;99.90
17851;DHT22;9051;51.548;14.348;2022-08-04T05:18:07;21.60;99.90
17851;DHT22;9051;51.548;14.348;2022-08-04T05:20:43;21.70;99.90
17851;DHT22;9051;51.548;14.348;2022-08-04T05:23:20;21.80;99.90
17851;DHT22;9051;51.548;14.348;2022-08-04T05:25:57;21.80;99.90
17851;DHT22;9051;51.548;14.348;2022-08-04T05:28:35;21.90;99.90
17851;DHT22;9051;51.548;14.348;2022-08-04T05:31:11;22.00;99.90
17851;DHT22;9051;51.548;14.348;2022-08-04T05:33:47;22.10;99.90
17851;DHT22;9051;51.548;14.348;2022-08-04T05:36:23;22.10;99.90
17851;DHT22;9051;51.548;14.348;2022-08-04T05:38:56;22.20;99.90
17851;DHT22;9051;51.548;14.348;2022-08-04T05:41:29;22.30;99.90
17851;DHT22;9051;51.548;14.348;2022-08-04T05:44:04;22.40;99.90
17851;DHT22;9051;51.548;14.348;2022-08-04T05:46:38;22.40;99.90
17851;DHT22;9051;51.548;14.348;2022-08-04T05:49:10;22.50;99.90
17851;DHT22;9051;51.548;14.348;2022-08-04T05:51:43;22.60;99.90
17851;DHT22;9051;51.548;14.348;2022-08-04T05:54:17;22.70;99.90
17851;DHT22;9051;51.548;14.348;2022-08-04T05:56:51;22.80;99.90
17851;DHT22;9051;51.548;14.348;2022-08-04T05:59:26;22.90;99.90
17851;DHT22;9051;51.548;14.348;2022-08-04T06:02:00;23.10;99.90
17851;DHT22;9051;51.548;14.348;2022-08-04T06:04:36;23.20;99.90
17851;DHT22;9051;51.548;14.348;2022-08-04T06:07:10;23.30;99.90
17851;DHT22;9051;51.548;14.348;2022-08-04T06:09:44;23.40;99.90
17851;DHT22;9051;51.548;14.348;2022-08-04T06:12:18;23.60;99.90
17851;DHT22;9051;51.548;14.348;2022-08-04T06:14:55;23.70;99.90
17851;DHT22;9051;51.548;14.348;2022-08-04T06:17:35;23.80;99.90
17851;DHT22;9051;51.548;14.348;2022-08-04T06:20:09;23.90;99.90
17851;DHT22;9051;51.548;14.348;2022-08-04T06:22:46;24.00;99.90
17851;DHT22;9051;51.548;14.348;2022-08-04T06:25:25;24.10;99.90
17851;DHT22;9051;51.548;14.348;2022-08-04T06:28:00;24.20;99.90
17851;DHT22;9051;51.548;14.348;2022-08-04T06:30:39;24.40;99.90
17851;DHT22;9051;51.548;14.348;2022-08-04T06:33:12;24.50;99.90
17851;DHT22;9051;51.548;14.348;2022-08-04T06:35:54;24.60;99.90
17851;DHT22;9051;51.548;14.348;2022-08-04T06:38:28;24.80;99.90
17851;DHT22;9051;51.548;14.348;2022-08-04T06:41:01;25.00;99.90
17851;DHT22;9051;51.548;14.348;2022-08-04T06:43:39;25.10;99.90
17851;DHT22;9051;51.548;14.348;2022-08-04T06:46:13;25.20;99.90
17851;DHT22;9051;51.548;14.348;2022-08-04T06:48:46;25.20;99.90
17851;DHT22;9051;51.548;14.348;2022-08-04T06:51:20;25.40;99.90
17851;DHT22;9051;51.548;14.348;2022-08-04T06:53:53;25.60;99.90
17851;DHT22;9051;51.548;14.348;2022-08-04T06:56:26;25.70;99.90
17851;DHT22;9051;51.548;14.348;2022-08-04T06:59:00;25.90;99.90
17851;DHT22;9051;51.548;14.348;2022-08-04T07:01:34;26.00;99.90
17851;DHT22;9051;51.548;14.348;2022-08-04T07:04:07;26.10;99.90
17851;DHT22;9051;51.548;14.348;2022-08-04T07:06:41;26.30;99.90
17851;DHT22;9051;51.548;14.348;2022-08-04T07:09:14;26.40;99.90
17851;DHT22;9051;51.548;14.348;2022-08-04T07:11:48;26.50;99.90
17851;DHT22;9051;51.548;14.348;2022-08-04T07:14:21;26.70;99.90
17851;DHT22;9051;51.548;14.348;2022-08-04T07:16:55;26.80;99.90
17851;DHT22;9051;51.548;14.348;2022-08-04T07:19:27;27.00;99.90
17851;DHT22;9051;51.548;14.348;2022-08-04T07:21:59;27.10;99.90
17851;DHT22;9051;51.548;14.348;2022-08-04T07:24:34;27.30;99.90
17851;DHT22;9051;51.548;14.348;2022-08-04T07:27:06;27.40;99.90
17851;DHT22;9051;51.548;14.348;2022-08-04T07:29:39;27.40;99.90
17851;DHT22;9051;51.548;14.348;2022-08-04T07:32:13;27.50;99.90
17851;DHT22;9051;51.548;14.348;2022-08-04T07:34:47;27.60;99.90
17851;DHT22;9051;51.548;14.348;2022-08-04T07:37:21;27.70;99.90
17851;DHT22;9051;51.548;14.348;2022-08-04T07:39:53;27.70;99.90
17851;DHT22;9051;51.548;14.348;2022-08-04T07:42:26;27.80;99.90
17851;DHT22;9051;51.548;14.348;2022-08-04T07:44:59;27.80;99.90
17851;DHT22;9051;51.548;14.348;2022-08-04T07:47:32;27.90;99.90
17851;DHT22;9051;51.548;14.348;2022-08-04T07:50:08;28.00;99.90
17851;DHT22;9051;51.548;14.348;2022-08-04T07:52:40;28.10;99.90
17851;DHT22;9051;51.548;14.348;2022-08-04T07:55:13;28.20;99.90
17851;DHT22;9051;51.548;14.348;2022-08-04T07:57:45;28.30;99.90
17851;DHT22;9051;51.548;14.348;2022-08-04T08:00:17;28.40;99.90
17851;DHT22;9051;51.548;14.348;2022-08-04T08:02:51;28.60;99.90
17851;DHT22;9051;51.548;14.348;2022-08-04T08:05:25;28.90;99.90
17851;DHT22;9051;51.548;14.348;2022-08-04T08:07:59;29.00;99.90
17851;DHT22;9051;51.548;14.348;2022-08-04T08:10:31;29.10;99.90
17851;DHT22;9051;51.548;14.348;2022-08-04T08:13:06;29.10;99.90
17851;DHT22;9051;51.548;14.348;2022-08-04T08:15:38;29.10;99.90
17851;DHT22;9051;51.548;14.348;2022-08-04T08:18:13;29.20;99.90
17851;DHT22;9051;51.548;14.348;2022-08-04T08:20:45;29.30;99.90
17851;DHT22;9051;51.548;14.348;2022-08-04T08:23:17;29.40;99.90
17851;DHT22;9051;51.548;14.348;2022-08-04T08:25:49;29.40;99.90
17851;DHT22;9051;51.548;14.348;2022-08-04T08:28:21;29.50;99.90
17851;DHT22;9051;51.548;14.348;2022-08-04T08:30:53;29.50;99.90
17851;DHT22;9051;51.548;14.348;2022-08-04T08:33:27;29.60;99.90
17851;DHT22;9051;51.548;14.348;2022-08-04T08:36:02;29.80;99.90
17851;DHT22;9051;51.548;14.348;2022-08-04T08:38:44;29.80;99.90
17851;DHT22;9051;51.548;14.348;2022-08-04T08:41:54;29.80;99.90
17851;DHT22;9051;51.548;14.348;2022-08-04T08:50:56;30.20;99.90
17851;DHT22;9051;51.548;14.348;2022-08-04T08:53:58;30.30;99.90
17851;DHT22;9051;51.548;14.348;2022-08-04T08:56:42;30.40;99.90
17851;DHT22;9051;51.548;14.348;2022-08-04T08:59:33;30.50;99.90
17851;DHT22;9051;51.548;14.348;2022-08-04T09:05:33;30.80;99.90
17851;DHT22;9051;51.548;14.348;2022-08-04T09:08:26;30.80;99.90
17851;DHT22;9051;51.548;14.348;2022-08-04T09:11:07;30.90;99.90
17851;DHT22;9051;51.548;14.348;2022-08-04T09:13:44;31.00;99.90
17851;DHT22;9051;51.548;14.348;2022-08-04T09:16:19;31.20;99.90
17851;DHT22;9051;51.548;14.348;2022-08-04T09:18:55;31.30;99.90
17851;DHT22;9051;51.548;14.348;2022-08-04T09:21:37;31.40;99.90
17851;DHT22;9051;51.548;14.348;2022-08-04T09:24:17;31.50;99.90
17851;DHT22;9051;51.548;14.348;2022-08-04T09:26:56;31.60;99.90
17851;DHT22;9051;51.548;14.348;2022-08-04T09:29:33;31.80;99.90
17851;DHT22;9051;51.548;14.348;2022-08-04T09:32:16;31.90;99.90
17851;DHT22;9051;51.548;14.348;2022-08-04T09:34:58;32.00;99.90
17851;DHT22;9051;51.548;14.348;2022-08-04T09:37:37;32.00;99.90
17851;DHT22;9051;51.548;14.348;2022-08-04T09:40:19;32.00;99.90
17851;DHT22;9051;51.548;14.348;2022-08-04T09:43:00;32.00;99.90
17851;DHT22;9051;51.548;14.348;2022-08-04T09:45:40;32.10;99.90
17851;DHT22;9051;51.548;14.348;2022-08-04T09:48:19;32.10;99.90
17851;DHT22;9051;51.548;14.348;2022-08-04T09:50:58;32.10;99.90
17851;DHT22;9051;51.548;14.348;2022-08-04T09:53:44;32.20;99.90
17851;DHT22;9051;51.548;14.348;2022-08-04T09:56:25;32.30;99.90
17851;DHT22;9051;51.548;14.348;2022-08-04T09:59:06;32.40;99.90
17851;DHT22;9051;51.548;14.348;2022-08-04T10:01:43;32.60;99.90
17851;DHT22;9051;51.548;14.348;2022-08-04T10:04:16;32.90;99.90
17851;DHT22;9051;51.548;14.348;2022-08-04T10:07:03;33.00;99.90
17851;DHT22;9051;51.548;14.348;2022-08-04T10:09:49;33.10;99.90
17851;DHT22;9051;51.548;14.348;2022-08-04T10:12:38;33.10;99.90
17851;DHT22;9051;51.548;14.348;2022-08-04T10:15:15;33.00;99.90
17851;DHT22;9051;51.548;14.348;2022-08-04T10:18:02;33.00;99.90
17851;DHT22;9051;51.548;14.348;2022-08-04T10:20:47;33.00;99.90
17851;DHT22;9051;51.548;14.348;2022-08-04T10:23:31;33.10;99.90
17851;DHT22;9051;51.548;14.348;2022-08-04T10:26:19;33.10;99.90
17851;DHT22;9051;51.548;14.348;2022-08-04T10:29:02;33.10;99.90
17851;DHT22;9051;51.548;14.348;2022-08-04T10:31:42;33.20;99.90
17851;DHT22;9051;51.548;14.348;2022-08-04T10:34:19;33.30;99.90
17851;DHT22;9051;51.548;14.348;2022-08-04T10:36:59;33.40;99.90
17851;DHT22;9051;51.548;14.348;2022-08-04T10:39:41;33.40;99.90
17851;DHT22;9051;51.548;14.348;2022-08-04T10:42:41;33.30;99.90
17851;DHT22;9051;51.548;14.348;2022-08-04T10:45:26;33.20;99.90
17851;DHT22;9051;51.548;14.348;2022-08-04T10:48:05;33.30;99.90
17851;DHT22;9051;51.548;14.348;2022-08-04T10:50:43;33.40;99.90
17851;DHT22;9051;51.548;14.348;2022-08-04T10:53:19;33.60;99.90
17851;DHT22;9051;51.548;14.348;2022-08-04T10:55:58;33.60;99.90
17851;DHT22;9051;51.548;14.348;2022-08-04T10:58:37;33.60;99.90
17851;DHT22;9051;51.548;14.348;2022-08-04T11:01:24;33.70;99.90
17851;DHT22;9051;51.548;14.348;2022-08-04T11:04:03;33.80;99.90
17851;DHT22;9051;51.548;14.348;2022-08-04T11:06:36;33.90;99.90
17851;DHT22;9051;51.548;14.348;2022-08-04T11:09:09;33.90;99.90
17851;DHT22;9051;51.548;14.348;2022-08-04T11:11:44;34.00;99.90
17851;DHT22;9051;51.548;14.348;2022-08-04T11:14:19;34.00;99.90
17851;DHT22;9051;51.548;14.348;2022-08-04T11:16:59;34.20;99.90
17851;DHT22;9051;51.548;14.348;2022-08-04T11:19:34;34.40;99.90
17851;DHT22;9051;51.548;14.348;2022-08-04T11:22:09;34.50;99.90
17851;DHT22;9051;51.548;14.348;2022-08-04T11:24:45;34.50;99.90
17851;DHT22;9051;51.548;14.348;2022-08-04T11:27:27;34.70;99.90
17851;DHT22;9051;51.548;14.348;2022-08-04T11:30:03;34.80;99.90
17851;DHT22;9051;51.548;14.348;2022-08-04T11:32:43;34.70;99.90
17851;DHT22;9051;51.548;14.348;2022-08-04T11:35:28;34.70;99.90
17851;DHT22;9051;51.548;14.348;2022-08-04T11:38:08;34.50;99.90
17851;DHT22;9051;51.548;14.348;2022-08-04T11:40:43;34.40;99.90
17851;DHT22;9051;51.548;14.348;2022-08-04T11:43:21;34.40;99.90
17851;DHT22;9051;51.548;14.348;2022-08-04T11:45:58;34.50;99.90
17851;DHT22;9051;51.548;14.348;2022-08-04T11:48:36;34.60;99.90
17851;DHT22;9051;51.548;14.348;2022-08-04T11:51:12;34.70;99.90
17851;DHT22;9051;51.548;14.348;2022-08-04T11:53:44;34.80;99.90
17851;DHT22;9051;51.548;14.348;2022-08-04T11:56:17;34.80;99.90
17851;DHT22;9051;51.548;14.348;2022-08-04T11:58:51;34.90;99.90
17851;DHT22;9051;51.548;14.348;2022-08-04T12:01:32;35.00;99.90
17851;DHT22;9051;51.548;14.348;2022-08-04T12:04:12;35.10;99.90
17851;DHT22;9051;51.548;14.348;2022-08-04T12:06:50;35.10;99.90
17851;DHT22;9051;51.548;14.348;2022-08-04T12:09:38;35.20;99.90
17851;DHT22;9051;51.548;14.348;2022-08-04T12:12:26;35.20;99.90
17851;DHT22;9051;51.548;14.348;2022-08-04T12:15:11;35.20;99.90
17851;DHT22;9051;51.548;14.348;2022-08-04T12:17:51;35.10;99.90
17851;DHT22;9051;51.548;14.348;2022-08-04T12:20:28;35.20;99.90
17851;DHT22;9051;51.548;14.348;2022-08-04T12:23:02;35.20;99.90
17851;DHT22;9051;51.548;14.348;2022-08-04T12:25:38;35.30;99.90
17851;DHT22;9051;51.548;14.348;2022-08-04T12:28:15;35.40;99.90
17851;DHT22;9051;51.548;14.348;2022-08-04T12:30:56;35.50;99.90
17851;DHT22;9051;51.548;14.348;2022-08-04T12:33:33;35.60;99.90
17851;DHT22;9051;51.548;14.348;2022-08-04T12:36:18;35.60;99.90
17851;DHT22;9051;51.548;14.348;2022-08-04T12:38:58;35.70;99.90
17851;DHT22;9051;51.548;14.348;2022-08-04T12:41:38;35.70;99.90
17851;DHT22;9051;51.548;14.348;2022-08-04T12:44:12;35.70;99.90
17851;DHT22;9051;51.548;14.348;2022-08-04T12:46:45;35.60;99.90
17851;DHT22;9051;51.548;14.348;2022-08-04T12:49:17;35.50;99.90
17851;DHT22;9051;51.548;14.348;2022-08-04T12:51:51;35.50;99.90
17851;DHT22;9051;51.548;14.348;2022-08-04T12:54:26;35.30;99.90
17851;DHT22;9051;51.548;14.348;2022-08-04T12:56:59;35.40;99.90
17851;DHT22;9051;51.548;14.348;2022-08-04T12:59:37;35.40;99.90
17851;DHT22;9051;51.548;14.348;2022-08-04T13:02:15;35.50;99.90
17851;DHT22;9051;51.548;14.348;2022-08-04T13:04:50;35.70;99.90
17851;DHT22;9051;51.548;14.348;2022-08-04T13:07:25;35.90;99.90
17851;DHT22;9051;51.548;14.348;2022-08-04T13:10:00;36.10;99.90
17851;DHT22;9051;51.548;14.348;2022-08-04T13:12:32;36.30;99.90
17851;DHT22;9051;51.548;14.348;2022-08-04T13:15:09;36.40;99.90
17851;DHT22;9051;51.548;14.348;2022-08-04T13:17:48;36.50;99.90
17851;DHT22;9051;51.548;14.348;2022-08-04T13:20:26;36.50;99.90
17851;DHT22;9051;51.548;14.348;2022-08-04T13:23:03;36.50;99.90
17851;DHT22;9051;51.548;14.348;2022-08-04T13:25:39;36.50;99.90
17851;DHT22;9051;51.548;14.348;2022-08-04T13:28:14;36.30;99.90
17851;DHT22;9051;51.548;14.348;2022-08-04T13:30:52;36.50;99.90
17851;DHT22;9051;51.548;14.348;2022-08-04T13:33:29;36.60;99.90
17851;DHT22;9051;51.548;14.348;2022-08-04T13:36:03;36.50;99.90
17851;DHT22;9051;51.548;14.348;2022-08-04T13:38:44;36.20;99.90
17851;DHT22;9051;51.548;14.348;2022-08-04T13:41:18;36.20;99.90
17851;DHT22;9051;51.548;14.348;2022-08-04T13:43:55;36.30;99.90
17851;DHT22;9051;51.548;14.348;2022-08-04T13:46:31;36.30;99.90
17851;DHT22;9051;51.548;14.348;2022-08-04T13:49:09;36.40;99.90
17851;DHT22;9051;51.548;14.348;2022-08-04T13:51:46;36.50;99.90
17851;DHT22;9051;51.548;14.348;2022-08-04T13:54:20;36.50;99.90
17851;DHT22;9051;51.548;14.348;2022-08-04T13:56:54;36.40;99.40
17851;DHT22;9051;51.548;14.348;2022-08-04T13:59:33;36.50;99.90
17851;DHT22;9051;51.548;14.348;2022-08-04T14:02:08;36.60;99.90
17851;DHT22;9051;51.548;14.348;2022-08-04T14:04:52;36.70;99.90
17851;DHT22;9051;51.548;14.348;2022-08-04T14:07:27;36.80;99.30
17851;DHT22;9051;51.548;14.348;2022-08-04T14:10:09;36.90;99.60
17851;DHT22;9051;51.548;14.348;2022-08-04T14:12:45;37.00;99.70
17851;DHT22;9051;51.548;14.348;2022-08-04T14:15:32;37.10;99.70
17851;DHT22;9051;51.548;14.348;2022-08-04T14:18:21;37.30;98.90
17851;DHT22;9051;51.548;14.348;2022-08-04T14:21:04;37.30;99.10
17851;DHT22;9051;51.548;14.348;2022-08-04T14:23:42;37.30;99.40
17851;DHT22;9051;51.548;14.348;2022-08-04T14:26:30;37.20;99.60
17851;DHT22;9051;51.548;14.348;2022-08-04T14:29:10;36.90;97.50
17851;DHT22;9051;51.548;14.348;2022-08-04T14:31:46;36.60;99.00
17851;DHT22;9051;51.548;14.348;2022-08-04T14:34:25;36.60;98.20
17851;DHT22;9051;51.548;14.348;2022-08-04T14:37:05;36.70;98.40
17851;DHT22;9051;51.548;14.348;2022-08-04T14:39:39;36.80;98.90
17851;DHT22;9051;51.548;14.348;2022-08-04T14:42:13;36.80;99.70
17851;DHT22;9051;51.548;14.348;2022-08-04T14:44:53;36.90;99.80
17851;DHT22;9051;51.548;14.348;2022-08-04T14:47:42;37.00;99.40
17851;DHT22;9051;51.548;14.348;2022-08-04T14:50:14;37.20;98.00
17851;DHT22;9051;51.548;14.348;2022-08-04T14:52:47;37.20;98.20
17851;DHT22;9051;51.548;14.348;2022-08-04T14:55:22;37.40;98.60
17851;DHT22;9051;51.548;14.348;2022-08-04T14:57:55;37.40;99.10
17851;DHT22;9051;51.548;14.348;2022-08-04T15:00:29;37.30;98.00
17851;DHT22;9051;51.548;14.348;2022-08-04T15:03:04;37.40;99.50
17851;DHT22;9051;51.548;14.348;2022-08-04T15:05:37;37.50;98.60
17851;DHT22;9051;51.548;14.348;2022-08-04T15:08:12;37.50;99.90
17851;DHT22;9051;51.548;14.348;2022-08-04T15:10:44;37.60;98.70
17851;DHT22;9051;51.548;14.348;2022-08-04T15:13:17;37.70;98.30
17851;DHT22;9051;51.548;14.348;2022-08-04T15:15:49;37.70;97.60
17851;DHT22;9051;51.548;14.348;2022-08-04T15:18:22;37.80;97.90
17851;DHT22;9051;51.548;14.348;2022-08-04T15:20:56;37.80;97.50
17851;DHT22;9051;51.548;14.348;2022-08-04T15:23:28;37.80;97.40
17851;DHT22;9051;51.548;14.348;2022-08-04T15:26:02;37.70;97.70
17851;DHT22;9051;51.548;14.348;2022-08-04T15:28:38;37.50;97.50
17851;DHT22;9051;51.548;14.348;2022-08-04T15:31:12;37.40;96.70
17851;DHT22;9051;51.548;14.348;2022-08-04T15:33:46;37.30;97.10
17851;DHT22;9051;51.548;14.348;2022-08-04T15:36:24;37.20;97.00
17851;DHT22;9051;51.548;14.348;2022-08-04T15:39:02;37.10;97.80
17851;DHT22;9051;51.548;14.348;2022-08-04T15:41:42;37.00;97.50
17851;DHT22;9051;51.548;14.348;2022-08-04T15:44:57;37.00;97.60
17851;DHT22;9051;51.548;14.348;2022-08-04T15:47:33;36.80;97.40
17851;DHT22;9051;51.548;14.348;2022-08-04T15:50:07;36.90;97.40
17851;DHT22;9051;51.548;14.348;2022-08-04T15:52:59;37.00;96.80
17851;DHT22;9051;51.548;14.348;2022-08-04T15:55:36;37.10;96.90
17851;DHT22;9051;51.548;14.348;2022-08-04T15:58:09;37.20;97.80
17851;DHT22;9051;51.548;14.348;2022-08-04T16:01:16;37.20;97.70
17851;DHT22;9051;51.548;14.348;2022-08-04T16:03:48;37.20;97.80
17851;DHT22;9051;51.548;14.348;2022-08-04T16:06:51;37.20;96.50
17851;DHT22;9051;51.548;14.348;2022-08-04T16:09:35;36.90;96.70
17851;DHT22;9051;51.548;14.348;2022-08-04T16:12:07;36.70;97.30
17851;DHT22;9051;51.548;14.348;2022-08-04T16:14:39;36.50;96.80
17851;DHT22;9051;51.548;14.348;2022-08-04T16:17:17;36.40;96.70
17851;DHT22;9051;51.548;14.348;2022-08-04T16:20:07;36.10;97.60
17851;DHT22;9051;51.548;14.348;2022-08-04T16:22:40;35.80;97.50
17851;DHT22;9051;51.548;14.348;2022-08-04T16:25:41;35.90;97.10
17851;DHT22;9051;51.548;14.348;2022-08-04T16:28:35;35.90;97.40
17851;DHT22;9051;51.548;14.348;2022-08-04T16:31:09;36.00;97.50
17851;DHT22;9051;51.548;14.348;2022-08-04T16:33:45;36.00;98.10
17851;DHT22;9051;51.548;14.348;2022-08-04T16:39:27;36.10;98.20
17851;DHT22;9051;51.548;14.348;2022-08-04T16:44:58;36.10;97.70
17851;DHT22;9051;51.548;14.348;2022-08-04T16:48:01;36.10;97.00
17851;DHT22;9051;51.548;14.348;2022-08-04T16:50:53;36.10;97.10
17851;DHT22;9051;51.548;14.348;2022-08-04T16:53:27;36.00;97.80
17851;DHT22;9051;51.548;14.348;2022-08-04T16:55:59;36.00;97.80
17851;DHT22;9051;51.548;14.348;2022-08-04T16:58:32;35.90;97.50
17851;DHT22;9051;51.548;14.348;2022-08-04T17:01:09;35.80;97.10
17851;DHT22;9051;51.548;14.348;2022-08-04T17:03:49;35.80;97.40
17851;DHT22;9051;51.548;14.348;2022-08-04T17:06:23;35.50;97.10
17851;DHT22;9051;51.548;14.348;2022-08-04T17:09:05;35.40;97.50
17851;DHT22;9051;51.548;14.348;2022-08-04T17:11:37;35.30;97.70
17851;DHT22;9051;51.548;14.348;2022-08-04T17:14:10;35.30;97.90
17851;DHT22;9051;51.548;14.348;2022-08-04T17:16:42;35.30;97.50
17851;DHT22;9051;51.548;14.348;2022-08-04T17:19:14;35.30;97.70
17851;DHT22;9051;51.548;14.348;2022-08-04T17:21:48;35.20;97.80
17851;DHT22;9051;51.548;14.348;2022-08-04T17:24:20;35.10;97.70
17851;DHT22;9051;51.548;14.348;2022-08-04T17:26:52;35.00;97.40
17851;DHT22;9051;51.548;14.348;2022-08-04T17:29:26;34.80;97.70